Kinder, Louisiana
Current Conditions -  °F | °C
As of 8:35 AM on Saturday 20 Dec 2014 (Local Time) from K3R7 Reporting Station
Overcast Overcast  
Wind Chill: 43°   Ceiling: 300
Heat Index: 47°   Visibility: 7mi
Dew Point: 47°   Wind: 8mph
Humidity: 98%   Direction: 20°NNE
Pressure: 30.18"   Gusts: NA
Location:  30.49°N, 92.85°W
Report Text: K3R7 201435Z AUTO 02007KT 7SM OVC003 09/08 A3018 RMK AO2 T00850082
Loading
Personal Weather Stations






























Interactive Weather Map New forecast layout! Learn more

10-Day Weather Forecast

Advertisements
Track Severe Weather on mobile